createdAt,value
2022-12-03T00:01:22.033Z,102264.75
2022-12-03T00:03:49.376Z,102276.75
2022-12-03T00:06:17.838Z,102276.91
2022-12-03T00:08:45.487Z,102278.28
2022-12-03T00:11:12.936Z,102279.97
2022-12-03T00:13:40.619Z,102275.59
2022-12-03T00:16:08.592Z,102265.25
2022-12-03T00:18:36.493Z,102276.38
2022-12-03T00:21:04.144Z,102272.78
2022-12-03T00:23:33.200Z,102273.41
2022-12-03T00:26:02.364Z,102271.63
2022-12-03T00:28:30.365Z,102274.44
2022-12-03T00:30:57.709Z,102265.09
2022-12-03T00:33:25.285Z,102273.81
2022-12-03T00:35:52.782Z,102274.06
2022-12-03T00:38:20.240Z,102276.91
2022-12-03T00:40:47.801Z,102197.53
2022-12-03T00:43:15.646Z,102281.63
2022-12-03T00:45:43.050Z,102275.72
2022-12-03T00:48:10.451Z,102282.66
2022-12-03T00:50:38.345Z,102279.31
2022-12-03T00:53:05.892Z,102263.84
2022-12-03T00:55:33.154Z,102285.72
2022-12-03T00:58:01.163Z,102281.38
2022-12-03T01:00:28.529Z,102290.69
2022-12-03T01:02:55.934Z,102290.97
2022-12-03T01:05:23.532Z,102152.03
2022-12-03T01:07:51.127Z,102289.78
2022-12-03T01:10:18.983Z,102286.97
2022-12-03T01:12:46.863Z,102299.50
2022-12-03T01:15:14.466Z,102302.06
2022-12-03T01:17:41.914Z,102302.53
2022-12-03T01:20:10.847Z,102298.84
2022-12-03T01:22:38.860Z,102299.09
2022-12-03T01:25:06.686Z,102287.97
2022-12-03T01:27:34.467Z,102300.38
2022-12-03T01:30:02.206Z,102257.81
2022-12-03T01:32:31.880Z,102128.56
2022-12-03T01:34:59.636Z,102305.00
2022-12-03T01:37:27.512Z,102308.66
2022-12-03T01:39:55.197Z,102300.09
2022-12-03T01:42:42.073Z,102299.34
2022-12-03T01:45:22.825Z,102315.81
2022-12-03T01:47:50.835Z,102234.31
2022-12-03T01:50:23.886Z,102300.59
2022-12-03T01:52:52.608Z,102223.44
2022-12-03T01:55:23.143Z,102188.28
2022-12-03T01:57:54.279Z,102313.63
2022-12-03T02:00:29.426Z,102301.88
2022-12-03T02:03:00.725Z,102278.59
2022-12-03T02:05:31.242Z,102314.91
2022-12-03T02:07:59.545Z,102314.63
2022-12-03T02:10:33.199Z,102314.38
2022-12-03T02:13:06.638Z,102197.53
2022-12-03T02:15:35.368Z,102085.78
2022-12-03T02:18:03.361Z,102193.41
2022-12-03T02:20:36.548Z,102317.56
2022-12-03T02:23:21.810Z,102321.03
2022-12-03T02:25:49.127Z,102327.94
2022-12-03T02:28:16.676Z,102322.16
2022-12-03T02:30:44.206Z,102303.28
2022-12-03T02:33:12.086Z,102316.75
2022-12-03T02:35:40.527Z,102314.81
2022-12-03T02:38:29.546Z,102303.88
2022-12-03T02:41:00.951Z,102317.94
2022-12-03T02:43:28.589Z,102317.94
2022-12-03T02:46:00.420Z,102319.59
2022-12-03T02:48:32.221Z,102237.41
2022-12-03T02:51:02.448Z,102330.91
2022-12-03T02:53:34.588Z,102327.47
2022-12-03T02:56:03.665Z,102327.88
2022-12-03T02:58:33.219Z,102320.75
2022-12-03T03:01:02.966Z,102313.72
2022-12-03T03:03:32.611Z,102331.75
2022-12-03T03:06:02.928Z,102338.38
2022-12-03T03:08:31.451Z,102333.25
2022-12-03T03:11:01.555Z,102167.22
2022-12-03T03:13:31.229Z,102248.72
2022-12-03T03:15:58.919Z,102160.72
2022-12-03T03:18:26.736Z,102337.47
2022-12-03T03:20:54.380Z,102340.19
2022-12-03T03:23:24.125Z,102343.75
2022-12-03T03:26:00.256Z,102335.88
2022-12-03T03:28:28.567Z,102340.34
2022-12-03T03:30:56.502Z,102340.25
2022-12-03T03:33:24.254Z,102317.47
2022-12-03T03:35:51.895Z,102108.41
2022-12-03T03:38:20.706Z,102192.28
2022-12-03T03:40:51.144Z,102337.69
2022-12-03T03:43:20.297Z,102351.75
2022-12-03T03:45:48.130Z,102354.81
2022-12-03T03:48:16.348Z,102342.69
2022-12-03T03:50:44.813Z,102354.56
2022-12-03T03:53:13.063Z,102278.84
2022-12-03T03:55:42.001Z,102334.97
2022-12-03T03:58:09.957Z,102261.06
2022-12-03T04:00:37.693Z,102255.44
2022-12-03T04:03:06.564Z,102351.69
2022-12-03T04:05:34.170Z,102359.16
2022-12-03T04:08:01.778Z,102356.25
2022-12-03T04:10:48.356Z,102361.13
2022-12-03T04:13:15.913Z,102362.56
2022-12-03T04:15:43.358Z,102322.00
2022-12-03T04:18:29.550Z,102351.03
2022-12-03T04:21:18.503Z,102381.47
2022-12-03T04:23:46.411Z,102367.44
2022-12-03T04:26:32.636Z,102241.31
2022-12-03T04:29:00.276Z,102304.84
2022-12-03T04:31:46.260Z,102383.09
2022-12-03T04:34:32.659Z,102384.38
2022-12-03T04:37:00.388Z,102333.44
2022-12-03T04:39:27.689Z,102356.72
2022-12-03T04:41:55.367Z,102371.97
2022-12-03T04:44:37.732Z,102129.00
2022-12-03T04:47:10.492Z,102401.19
2022-12-03T04:49:41.187Z,102415.22
2022-12-03T04:52:09.700Z,102382.00
2022-12-03T04:54:38.879Z,102400.41
2022-12-03T04:57:07.223Z,102396.66
2022-12-03T04:59:35.992Z,102409.56
2022-12-03T05:02:04.721Z,102418.53
2022-12-03T05:04:34.236Z,102421.69
2022-12-03T05:07:01.674Z,102425.06
2022-12-03T05:09:29.278Z,102391.44
2022-12-03T05:11:57.063Z,102448.16
2022-12-03T05:14:24.640Z,102403.22
2022-12-03T05:16:52.145Z,102418.03
2022-12-03T05:19:19.868Z,102411.75
2022-12-03T05:21:47.149Z,102421.09
2022-12-03T05:24:15.023Z,102435.94
2022-12-03T05:26:42.852Z,102427.97
2022-12-03T05:29:10.121Z,102436.66
2022-12-03T05:31:37.907Z,102433.81
2022-12-03T05:34:06.104Z,102435.00
2022-12-03T05:36:33.444Z,102431.72
2022-12-03T05:39:00.854Z,102418.66
2022-12-03T05:41:47.005Z,102353.69
2022-12-03T05:44:20.108Z,102321.41
2022-12-03T05:46:48.109Z,102443.47
2022-12-03T05:49:15.976Z,102367.94
2022-12-03T05:51:43.568Z,102437.31
2022-12-03T05:54:10.882Z,102438.22
2022-12-03T05:56:38.909Z,102442.22
2022-12-03T05:59:06.426Z,102436.09
2022-12-03T06:01:34.564Z,102437.75
2022-12-03T06:04:02.276Z,102444.78
2022-12-03T06:06:29.872Z,102435.38
2022-12-03T06:08:57.685Z,102433.06
2022-12-03T06:11:25.349Z,102429.88
2022-12-03T06:13:52.775Z,102434.34
2022-12-03T06:16:20.657Z,102439.53
2022-12-03T06:18:48.547Z,102435.44
2022-12-03T06:21:16.174Z,102430.47
2022-12-03T06:23:45.003Z,102434.53
2022-12-03T06:26:13.439Z,102435.63
2022-12-03T06:28:45.732Z,102437.31
2022-12-03T06:31:13.969Z,102425.06
2022-12-03T06:33:41.627Z,102433.53
2022-12-03T06:36:09.579Z,102434.06
2022-12-03T06:38:36.834Z,102259.50
2022-12-03T06:41:04.520Z,102420.53
2022-12-03T06:43:32.418Z,102431.81
2022-12-03T06:45:59.795Z,102428.53
2022-12-03T06:48:27.594Z,102430.69
2022-12-03T06:50:55.360Z,102431.59
2022-12-03T06:53:22.986Z,102430.97
2022-12-03T06:55:50.655Z,102217.34
2022-12-03T06:58:18.272Z,102360.47
2022-12-03T07:00:45.620Z,102422.84
2022-12-03T07:03:13.643Z,102430.91
2022-12-03T07:05:41.162Z,102424.13
2022-12-03T07:08:08.825Z,102424.88
2022-12-03T07:10:36.996Z,102293.63
2022-12-03T07:13:04.575Z,102406.34
2022-12-03T07:15:31.877Z,102421.06
2022-12-03T07:17:59.859Z,102419.91
2022-12-03T07:20:27.208Z,102418.34
2022-12-03T07:22:54.418Z,102398.25
2022-12-03T07:25:23.678Z,102414.72
2022-12-03T07:27:51.700Z,102419.03
2022-12-03T07:30:19.213Z,102403.38
2022-12-03T07:32:46.660Z,102418.22
2022-12-03T07:35:14.178Z,102419.66
2022-12-03T07:37:41.723Z,102418.09
2022-12-03T07:40:10.389Z,102417.09
2022-12-03T07:42:38.394Z,102412.00
2022-12-03T07:45:06.761Z,102432.59
2022-12-03T07:47:34.297Z,102273.25
2022-12-03T07:50:02.049Z,102418.47
2022-12-03T07:52:30.301Z,102243.19
2022-12-03T07:54:57.861Z,102417.94
2022-12-03T07:57:25.233Z,102412.81
2022-12-03T07:59:52.649Z,102421.34
2022-12-03T08:02:21.870Z,102402.41
2022-12-03T08:04:49.705Z,102362.94
2022-12-03T08:07:17.236Z,102389.53
2022-12-03T08:09:45.005Z,102411.25
2022-12-03T08:12:18.532Z,102402.56
2022-12-03T08:14:46.215Z,102411.09
2022-12-03T08:17:15.284Z,102403.34
2022-12-03T08:19:47.196Z,102399.03
2022-12-03T08:22:16.100Z,102365.28
2022-12-03T08:24:44.180Z,102408.72
2022-12-03T08:27:19.324Z,102396.09
2022-12-03T08:29:46.997Z,102355.75
2022-12-03T08:32:14.645Z,102381.44
2022-12-03T08:34:44.423Z,102384.88
2022-12-03T08:37:21.547Z,102394.78
2022-12-03T08:39:51.118Z,102392.78
2022-12-03T08:42:43.720Z,102401.44
2022-12-03T08:45:29.732Z,102395.28
2022-12-03T08:48:03.099Z,102397.53
2022-12-03T08:50:39.161Z,102399.88
2022-12-03T08:53:16.016Z,102401.00
2022-12-03T08:55:48.200Z,102392.84
2022-12-03T08:58:30.990Z,102402.47
2022-12-03T09:01:06.103Z,102392.31
2022-12-03T09:03:33.859Z,102383.00
2022-12-03T09:06:01.186Z,102130.75
2022-12-03T09:08:28.792Z,102388.84
2022-12-03T09:10:56.645Z,102361.34
2022-12-03T09:13:24.180Z,102251.19
2022-12-03T09:15:51.808Z,102388.34
2022-12-03T09:18:19.395Z,102377.91
2022-12-03T09:20:47.090Z,102359.22
2022-12-03T09:23:14.756Z,102350.63
2022-12-03T09:25:42.482Z,102375.84
2022-12-03T09:28:10.475Z,102356.63
2022-12-03T09:30:37.725Z,102295.56
2022-12-03T09:33:05.100Z,102298.13
2022-12-03T09:35:33.590Z,102384.78
2022-12-03T09:38:01.187Z,102389.28
2022-12-03T09:40:29.371Z,102407.03
2022-12-03T09:42:58.799Z,102397.53
2022-12-03T09:45:26.202Z,102395.41
2022-12-03T09:47:54.818Z,102363.13
2022-12-03T09:50:26.921Z,102389.88
2022-12-03T09:52:57.336Z,102273.63
2022-12-03T09:55:27.715Z,102389.16
2022-12-03T09:57:56.747Z,102385.94
2022-12-03T10:00:27.568Z,102181.38
2022-12-03T10:02:58.363Z,102363.38
2022-12-03T10:05:26.075Z,102386.94
2022-12-03T10:07:53.797Z,102382.44
2022-12-03T10:10:23.945Z,102373.63
2022-12-03T10:12:52.651Z,102389.16
2022-12-03T10:15:23.464Z,102376.09
2022-12-03T10:17:54.684Z,102379.97
2022-12-03T10:20:24.374Z,102377.88
2022-12-03T10:22:52.022Z,102371.94
2022-12-03T10:25:22.912Z,102380.78
2022-12-03T10:27:58.840Z,102382.22
2022-12-03T10:30:28.759Z,102383.03
2022-12-03T10:32:58.497Z,102372.50
2022-12-03T10:35:37.863Z,102379.97
2022-12-03T10:38:08.495Z,102346.56
2022-12-03T10:40:38.633Z,102273.91
2022-12-03T10:43:18.285Z,102390.16
2022-12-03T10:45:46.863Z,102385.81
2022-12-03T10:48:17.673Z,102288.88
2022-12-03T10:51:05.699Z,102385.47
2022-12-03T10:53:36.019Z,102387.59
2022-12-03T10:56:06.255Z,102391.97
2022-12-03T10:58:39.889Z,102389.03
2022-12-03T11:01:16.125Z,102391.59
2022-12-03T11:03:43.825Z,102391.28
2022-12-03T11:06:17.515Z,102390.41
2022-12-03T11:08:52.996Z,102297.56
2022-12-03T11:11:29.223Z,102391.75
2022-12-03T11:14:04.583Z,102401.78
2022-12-03T11:16:41.040Z,102392.75
2022-12-03T11:19:44.092Z,102271.44
2022-12-03T11:22:11.766Z,102385.25
2022-12-03T11:24:40.715Z,102289.75
2022-12-03T11:27:18.793Z,102390.16
2022-12-03T11:29:52.211Z,102386.25
2022-12-03T11:32:40.735Z,102389.25
2022-12-03T11:35:24.315Z,102390.41
2022-12-03T11:37:52.600Z,102310.84
2022-12-03T11:40:20.041Z,102392.19
2022-12-03T11:42:48.930Z,102363.91
2022-12-03T11:45:31.020Z,102384.34
2022-12-03T11:47:58.385Z,102397.41
2022-12-03T11:50:58.236Z,102389.72
2022-12-03T11:53:27.372Z,102391.75
2022-12-03T11:56:09.577Z,102380.00
2022-12-03T11:58:39.532Z,102387.84
2022-12-03T12:01:08.629Z,102378.22
2022-12-03T12:03:42.399Z,102387.13
2022-12-03T12:06:19.124Z,102395.75
2022-12-03T12:08:52.617Z,102397.09
2022-12-03T12:11:26.309Z,102390.50
2022-12-03T12:13:56.997Z,102388.81
2022-12-03T12:16:47.721Z,102401.69
2022-12-03T12:19:41.625Z,102398.75
2022-12-03T12:22:16.045Z,102393.63
2022-12-03T12:24:51.930Z,102389.25
2022-12-03T12:27:31.012Z,102392.03
2022-12-03T12:30:01.525Z,102387.22
2022-12-03T12:33:05.906Z,102395.97
2022-12-03T12:35:33.516Z,102392.59
2022-12-03T12:38:07.092Z,102394.41
2022-12-03T12:40:37.045Z,102379.97
2022-12-03T12:43:25.900Z,102391.16
2022-12-03T12:46:13.611Z,102414.31
2022-12-03T12:48:48.065Z,102373.16
2022-12-03T12:51:20.761Z,102379.97
2022-12-03T12:53:50.005Z,102371.59
2022-12-03T12:56:20.469Z,102392.94
2022-12-03T12:58:48.630Z,102398.41
2022-12-03T13:01:26.622Z,102374.38
2022-12-03T13:03:54.876Z,102200.19
2022-12-03T13:06:26.572Z,102388.44
2022-12-03T13:08:54.523Z,102391.66
2022-12-03T13:11:25.683Z,102392.53
2022-12-03T13:13:53.415Z,102345.88
2022-12-03T13:16:29.006Z,102391.66
2022-12-03T13:19:01.764Z,102391.66
2022-12-03T13:21:40.768Z,102394.44
2022-12-03T13:24:34.605Z,102395.56
2022-12-03T13:27:14.084Z,102392.41
2022-12-03T13:29:42.054Z,102360.91
2022-12-03T13:32:29.612Z,102400.13
2022-12-03T13:35:07.865Z,102401.13
2022-12-03T13:37:35.484Z,102410.84
2022-12-03T13:40:28.106Z,102375.53
2022-12-03T13:42:55.614Z,102399.44
2022-12-03T13:45:25.015Z,102410.28
2022-12-03T13:47:57.173Z,102409.06
2022-12-03T13:50:42.165Z,102401.13
2022-12-03T13:53:35.571Z,102408.50
2022-12-03T13:56:31.879Z,102416.22
2022-12-03T13:59:01.976Z,102405.94
2022-12-03T14:01:30.504Z,102412.84
2022-12-03T14:03:57.985Z,102407.91
2022-12-03T14:06:25.764Z,102362.66
2022-12-03T14:08:53.561Z,102407.91
2022-12-03T14:11:40.272Z,102284.41
2022-12-03T14:14:07.951Z,102390.91
2022-12-03T14:16:35.676Z,102409.19
2022-12-03T14:19:04.261Z,102405.63
2022-12-03T14:21:31.750Z,102302.78
2022-12-03T14:23:59.129Z,102421.16
2022-12-03T14:26:27.081Z,102416.56
2022-12-03T14:28:54.851Z,102416.56
2022-12-03T14:31:22.261Z,102418.81
2022-12-03T14:33:50.059Z,102414.94
2022-12-03T14:36:17.810Z,102336.75
2022-12-03T14:38:45.413Z,102419.03
2022-12-03T14:41:31.868Z,102421.72
2022-12-03T14:43:59.207Z,102423.50
2022-12-03T14:46:26.776Z,102392.75
2022-12-03T14:48:54.723Z,102402.44
2022-12-03T14:51:22.437Z,102427.50
2022-12-03T14:53:49.933Z,102427.88
2022-12-03T14:56:19.697Z,102440.31
2022-12-03T14:58:47.388Z,102437.53
2022-12-03T15:01:15.383Z,102394.97
2022-12-03T15:03:43.059Z,102419.97
2022-12-03T15:06:10.541Z,102429.59
2022-12-03T15:08:38.368Z,102412.94
2022-12-03T15:11:06.862Z,102278.91
2022-12-03T15:13:35.494Z,102424.50
2022-12-03T15:16:03.476Z,102420.72
2022-12-03T15:18:31.583Z,102425.09
2022-12-03T15:20:59.184Z,102442.31
2022-12-03T15:23:26.525Z,102421.06
2022-12-03T15:25:54.282Z,102423.88
2022-12-03T15:28:23.204Z,102414.34
2022-12-03T15:30:51.032Z,102429.84
2022-12-03T15:33:18.963Z,102416.78
2022-12-03T15:35:46.370Z,102421.38
2022-12-03T15:38:13.770Z,102429.09
2022-12-03T15:40:41.652Z,102421.84
2022-12-03T15:43:10.023Z,102432.91
2022-12-03T15:45:37.621Z,102434.03
2022-12-03T15:48:05.851Z,102429.97
2022-12-03T15:50:38.471Z,102432.59
2022-12-03T15:53:07.347Z,102427.13
2022-12-03T15:55:35.407Z,102251.66
2022-12-03T15:58:02.649Z,102436.88
2022-12-03T16:00:30.284Z,102427.81
2022-12-03T16:02:58.003Z,102435.97
2022-12-03T16:05:25.489Z,102407.59
2022-12-03T16:07:53.236Z,102437.91
2022-12-03T16:10:21.678Z,102434.75
2022-12-03T16:12:49.410Z,102428.06
2022-12-03T16:15:19.859Z,102438.13
2022-12-03T16:17:49.787Z,102364.34
2022-12-03T16:20:17.084Z,102448.38
2022-12-03T16:22:44.868Z,102426.31
2022-12-03T16:25:12.463Z,102446.44
2022-12-03T16:27:41.185Z,102364.75
2022-12-03T16:30:09.928Z,102443.59
2022-12-03T16:32:37.659Z,102450.53
2022-12-03T16:35:05.669Z,102421.38
2022-12-03T16:37:33.420Z,102456.97
2022-12-03T16:40:01.495Z,102457.34
2022-12-03T16:42:30.436Z,102380.81
2022-12-03T16:45:04.064Z,102461.66
2022-12-03T16:47:34.303Z,102466.44
2022-12-03T16:50:03.001Z,102457.41
2022-12-03T16:52:30.732Z,102454.75
2022-12-03T16:54:58.245Z,102451.63
2022-12-03T16:57:31.755Z,102460.91
2022-12-03T17:00:01.582Z,102443.59
2022-12-03T17:02:31.437Z,102452.28
2022-12-03T17:04:58.939Z,102352.06
2022-12-03T17:07:26.641Z,102471.97
2022-12-03T17:09:54.583Z,102453.97
2022-12-03T17:12:22.083Z,102455.84
2022-12-03T17:14:50.142Z,102457.66
2022-12-03T17:17:18.530Z,102445.94
2022-12-03T17:19:45.852Z,102452.44
2022-12-03T17:22:14.177Z,102372.75
2022-12-03T17:24:44.275Z,102456.81
2022-12-03T17:27:12.987Z,102474.91
2022-12-03T17:29:40.893Z,102466.41
2022-12-03T17:32:09.919Z,102453.53
2022-12-03T17:34:37.234Z,102477.38
2022-12-03T17:37:04.778Z,102462.13
2022-12-03T17:39:32.682Z,102447.28
2022-12-03T17:42:00.334Z,102477.13
2022-12-03T17:44:28.275Z,102382.53
2022-12-03T17:46:55.705Z,102470.91
2022-12-03T17:49:28.312Z,102475.00
2022-12-03T17:51:58.560Z,102466.19
2022-12-03T17:54:43.308Z,102280.25
2022-12-03T17:57:14.160Z,102346.16
2022-12-03T17:59:41.822Z,102417.31
2022-12-03T18:02:09.587Z,102475.59
2022-12-03T18:04:37.872Z,102469.44
2022-12-03T18:07:09.116Z,102462.69
2022-12-03T18:09:36.792Z,102466.41
2022-12-03T18:12:04.780Z,102467.06
2022-12-03T18:14:32.283Z,102476.03
2022-12-03T18:16:59.742Z,102341.13
2022-12-03T18:19:27.435Z,102464.50
2022-12-03T18:21:55.314Z,102486.88
2022-12-03T18:24:23.013Z,102481.63
2022-12-03T18:26:51.077Z,102487.31
2022-12-03T18:29:18.618Z,102480.94
2022-12-03T18:31:48.387Z,102377.00
2022-12-03T18:34:16.096Z,102475.81
2022-12-03T18:36:43.727Z,102467.31
2022-12-03T18:39:20.809Z,102459.69
2022-12-03T18:41:48.772Z,102267.03
2022-12-03T18:44:16.202Z,102368.84
2022-12-03T18:46:59.388Z,102478.50
2022-12-03T18:49:27.402Z,102407.72
2022-12-03T18:51:59.344Z,102474.56
2022-12-03T18:54:27.369Z,102489.69
2022-12-03T18:56:55.013Z,102423.28
2022-12-03T18:59:22.947Z,102498.41
2022-12-03T19:01:50.921Z,102383.81
2022-12-03T19:04:18.205Z,102501.50
2022-12-03T19:06:48.881Z,102473.09
2022-12-03T19:09:16.642Z,102487.75
2022-12-03T19:11:44.567Z,102321.25
2022-12-03T19:14:12.480Z,102496.84
2022-12-03T19:16:41.153Z,102492.25
2022-12-03T19:19:09.988Z,102408.25
2022-12-03T19:21:37.885Z,102497.50
2022-12-03T19:26:55.840Z,102399.22
2022-12-03T19:29:23.938Z,102503.88
2022-12-03T19:31:52.163Z,102506.22
2022-12-03T19:34:21.004Z,102507.00
2022-12-03T19:36:48.768Z,102390.16
2022-12-03T19:39:16.620Z,102499.59
2022-12-03T19:41:44.958Z,102512.25
2022-12-03T19:44:14.548Z,102517.59
2022-12-03T19:46:42.708Z,102331.28
2022-12-03T19:49:10.967Z,102493.22
2022-12-03T19:51:38.941Z,102253.13
2022-12-03T19:54:07.953Z,102510.72
2022-12-03T19:56:35.787Z,102493.56
2022-12-03T19:59:03.736Z,102505.44
2022-12-03T20:01:33.808Z,102500.06
2022-12-03T20:04:03.769Z,102495.25
2022-12-03T20:06:34.308Z,102497.94
2022-12-03T20:09:06.669Z,102363.69
2022-12-03T20:11:35.572Z,102499.94
2022-12-03T20:14:06.537Z,102446.50
2022-12-03T20:16:34.485Z,102507.56
2022-12-03T20:19:05.246Z,102463.50
2022-12-03T20:21:34.502Z,102491.03
2022-12-03T20:24:02.464Z,102519.22
2022-12-03T20:26:30.071Z,102521.22
2022-12-03T20:28:58.433Z,102503.53
2022-12-03T20:31:29.271Z,102446.50
2022-12-03T20:33:59.660Z,102509.03
2022-12-03T20:36:29.379Z,102507.13
2022-12-03T20:38:59.852Z,102512.47
2022-12-03T20:41:27.869Z,102539.78
2022-12-03T20:43:55.595Z,102520.44
2022-12-03T20:46:27.615Z,102549.16
2022-12-03T20:48:56.266Z,102502.63
2022-12-03T20:51:27.379Z,102504.59
2022-12-03T20:53:56.122Z,102424.50
2022-12-03T20:56:31.466Z,102424.81
2022-12-03T20:59:07.945Z,102506.50
2022-12-03T21:01:36.538Z,102298.69
2022-12-03T21:04:05.614Z,102485.66
2022-12-03T21:06:36.185Z,102496.78
2022-12-03T21:09:06.454Z,102499.75
2022-12-03T21:11:35.986Z,102511.81
2022-12-03T21:14:04.798Z,102374.84
2022-12-03T21:19:23.749Z,102503.53
2022-12-03T21:21:51.384Z,102489.78
2022-12-03T21:24:19.121Z,102236.00
2022-12-03T21:26:46.815Z,102497.19
2022-12-03T21:29:14.252Z,102447.94
2022-12-03T21:31:41.874Z,102487.00
2022-12-03T21:34:09.654Z,102514.84
2022-12-03T21:36:37.303Z,102503.97
2022-12-03T21:39:05.758Z,102510.34
2022-12-03T21:41:35.349Z,102501.94
2022-12-03T21:44:03.263Z,102506.53
2022-12-03T21:47:12.280Z,102502.41
2022-12-03T21:49:19.518Z,102385.56
2022-12-03T21:51:47.433Z,102495.31
2022-12-03T21:54:15.349Z,102502.09
2022-12-03T21:56:43.329Z,102505.16
2022-12-03T21:59:11.095Z,102501.47
2022-12-03T22:01:42.764Z,102486.63
2022-12-03T22:04:13.444Z,102332.16
2022-12-03T22:06:40.717Z,102490.75
2022-12-03T22:09:07.985Z,102493.16
2022-12-03T22:11:35.987Z,102489.34
2022-12-03T22:14:04.888Z,102492.72
2022-12-03T22:16:32.588Z,102331.59
2022-12-03T22:19:00.434Z,102485.44
2022-12-03T22:21:27.913Z,102499.44
2022-12-03T22:23:56.069Z,102470.28
2022-12-03T22:26:23.931Z,102455.78
2022-12-03T22:28:51.610Z,102473.00
2022-12-03T22:31:19.312Z,102481.34
2022-12-03T22:33:48.672Z,102421.56
2022-12-03T22:36:21.084Z,102496.56
2022-12-03T22:38:50.905Z,102376.16
2022-12-03T22:41:20.075Z,102496.78
2022-12-03T22:43:48.376Z,102488.06
2022-12-03T22:46:17.048Z,102494.56
2022-12-03T22:48:46.128Z,102496.66
2022-12-03T22:51:22.195Z,102492.50
2022-12-03T22:53:55.803Z,102498.69
2022-12-03T22:56:23.930Z,102466.28
2022-12-03T22:58:51.722Z,102325.22
2022-12-03T23:01:23.914Z,102498.28
2022-12-03T23:03:51.812Z,102503.88
2022-12-03T23:06:19.663Z,102361.22
2022-12-03T23:08:47.447Z,102508.00
2022-12-03T23:11:15.951Z,102505.66
2022-12-03T23:13:43.878Z,102505.19
2022-12-03T23:16:16.090Z,102512.16
2022-12-03T23:18:43.810Z,102492.25
2022-12-03T23:21:16.938Z,102505.44
2022-12-03T23:23:44.540Z,102511.38
2022-12-03T23:26:13.549Z,102511.72
2022-12-03T23:28:42.241Z,102337.75
2022-12-03T23:31:22.311Z,102518.41
2022-12-03T23:33:51.130Z,102512.16
2022-12-03T23:36:19.120Z,102367.59
2022-12-03T23:38:47.040Z,102511.81
2022-12-03T23:41:18.320Z,102527.13
2022-12-03T23:43:45.952Z,102525.47
2022-12-03T23:46:18.129Z,102516.84
2022-12-03T23:48:45.879Z,102523.09
2022-12-03T23:51:16.415Z,102522.00
2022-12-03T23:53:44.928Z,102520.00
2022-12-03T23:56:16.838Z,102519.44
2022-12-03T23:58:45.163Z,102318.53
